createdAt,value
2022-12-19T20:16:31.619Z,25.00
2022-12-19T20:17:31.479Z,25.00
2022-12-19T20:18:31.739Z,25.00
2022-12-19T20:19:31.210Z,25.00
2022-12-19T20:20:31.094Z,25.00
2022-12-19T20:21:31.426Z,0.00
2022-12-19T20:22:31.213Z,0.00
2022-12-19T20:23:30.733Z,0.00
2022-12-19T20:24:30.726Z,0.00
2022-12-19T20:25:30.429Z,0.00
2022-12-19T20:26:30.424Z,0.00
2022-12-19T20:27:30.220Z,0.00
2022-12-19T20:28:30.054Z,0.00
2022-12-19T20:29:29.945Z,4.92
2022-12-19T20:30:30.348Z,24.97
2022-12-19T20:31:29.709Z,25.00
2022-12-19T20:32:29.737Z,25.98
2022-12-19T20:33:29.339Z,27.13
2022-12-19T20:34:29.242Z,26.79
2022-12-19T20:36:32.429Z,27.47
2022-12-19T20:37:33.772Z,27.30
2022-12-19T20:38:28.693Z,27.41
2022-12-19T20:39:28.559Z,27.42
2022-12-19T20:40:30.209Z,27.43
2022-12-19T20:41:28.292Z,23.75
2022-12-19T20:42:29.803Z,23.65
2022-12-19T20:43:29.719Z,27.38
2022-12-19T20:44:28.056Z,29.92
2022-12-19T20:45:28.829Z,28.53
2022-12-19T20:46:27.765Z,25.86
2022-12-19T20:47:28.303Z,32.66
2022-12-19T20:48:27.300Z,33.16
2022-12-19T20:49:27.703Z,33.69
2022-12-19T20:50:27.092Z,34.66
2022-12-19T20:51:27.402Z,39.90
2022-12-19T20:52:26.695Z,36.84
2022-12-19T20:53:26.621Z,39.54
2022-12-19T20:54:26.393Z,40.41
2022-12-19T21:13:46.527Z,25.00
2022-12-19T21:14:46.431Z,25.00
2022-12-19T21:15:45.942Z,25.00
2022-12-19T21:16:45.817Z,25.00
2022-12-19T21:17:45.594Z,25.00
2022-12-19T21:18:48.363Z,26.53
2022-12-19T21:19:45.304Z,26.64
2022-12-19T21:20:46.849Z,26.61
